sensor_id;sensor_type;location;lat;lon;timestamp;pressure;altitude;pressure_sealevel;temperature;humidity
70559;BME280;58108;48.094;11.838;2023-12-22T00:02:25;93800.59;;;3.13;100.00
70559;BME280;58108;48.094;11.838;2023-12-22T00:04:51;93784.25;;;2.79;100.00
70559;BME280;58108;48.094;11.838;2023-12-22T00:07:17;93787.78;;;2.78;100.00
70559;BME280;58108;48.094;11.838;2023-12-22T00:09:42;93787.78;;;2.66;100.00
70559;BME280;58108;48.094;11.838;2023-12-22T00:12:07;93824.97;;;2.52;100.00
70559;BME280;58108;48.094;11.838;2023-12-22T00:14:33;93878.41;;;2.27;100.00
70559;BME280;58108;48.094;11.838;2023-12-22T00:16:59;93924.03;;;1.78;100.00
70559;BME280;58108;48.094;11.838;2023-12-22T00:19:24;93944.47;;;1.42;100.00
70559;BME280;58108;48.094;11.838;2023-12-22T00:21:50;93926.13;;;1.08;100.00
70559;BME280;58108;48.094;11.838;2023-12-22T00:24:15;93941.13;;;0.75;100.00
70559;BME280;58108;48.094;11.838;2023-12-22T00:26:41;93923.88;;;0.63;100.00
70559;BME280;58108;48.094;11.838;2023-12-22T00:29:07;93915.56;;;0.45;100.00
70559;BME280;58108;48.094;11.838;2023-12-22T00:31:33;93941.28;;;0.32;100.00
70559;BME280;58108;48.094;11.838;2023-12-22T00:33:58;93936.34;;;0.29;100.00
70559;BME280;58108;48.094;11.838;2023-12-22T00:36:24;93934.31;;;0.34;100.00
70559;BME280;58108;48.094;11.838;2023-12-22T00:38:50;93917.00;;;0.36;100.00
70559;BME280;58108;48.094;11.838;2023-12-22T00:41:16;93908.34;;;0.37;100.00
70559;BME280;58108;48.094;11.838;2023-12-22T00:43:41;93917.53;;;0.41;100.00
70559;BME280;58108;48.094;11.838;2023-12-22T00:46:07;93920.81;;;0.30;100.00
70559;BME280;58108;48.094;11.838;2023-12-22T00:48:32;93926.47;;;0.35;100.00
70559;BME280;58108;48.094;11.838;2023-12-22T00:50:58;93918.78;;;0.48;100.00
70559;BME280;58108;48.094;11.838;2023-12-22T00:53:23;93914.06;;;0.42;100.00
70559;BME280;58108;48.094;11.838;2023-12-22T00:55:49;93917.00;;;0.36;100.00
70559;BME280;58108;48.094;11.838;2023-12-22T00:58:14;93926.41;;;0.50;100.00
70559;BME280;58108;48.094;11.838;2023-12-22T01:00:40;93926.47;;;0.35;100.00
70559;BME280;58108;48.094;11.838;2023-12-22T01:03:05;93933.91;;;0.40;100.00
70559;BME280;58108;48.094;11.838;2023-12-22T01:05:31;93937.75;;;0.20;100.00
70559;BME280;58108;48.094;11.838;2023-12-22T01:07:56;93936.97;;;0.32;100.00
70559;BME280;58108;48.094;11.838;2023-12-22T01:10:22;93941.53;;;0.42;100.00
70559;BME280;58108;48.094;11.838;2023-12-22T01:12:47;93937.22;;;0.42;100.00
70559;BME280;58108;48.094;11.838;2023-12-22T01:15:13;93952.75;;;0.40;100.00
70559;BME280;58108;48.094;11.838;2023-12-22T01:17:39;93938.81;;;0.58;100.00
70559;BME280;58108;48.094;11.838;2023-12-22T01:20:04;93940.81;;;0.39;100.00
70559;BME280;58108;48.094;11.838;2023-12-22T01:22:30;93926.16;;;0.40;100.00
70559;BME280;58108;48.094;11.838;2023-12-22T01:24:57;93932.88;;;0.43;100.00
70559;BME280;58108;48.094;11.838;2023-12-22T01:27:23;93932.34;;;0.37;100.00
70559;BME280;58108;48.094;11.838;2023-12-22T01:29:48;93941.97;;;0.48;100.00
70559;BME280;58108;48.094;11.838;2023-12-22T01:32:14;93939.81;;;0.42;100.00
70559;BME280;58108;48.094;11.838;2023-12-22T01:34:39;93954.56;;;0.53;100.00
70559;BME280;58108;48.094;11.838;2023-12-22T01:37:05;93955.66;;;0.49;100.00
70559;BME280;58108;48.094;11.838;2023-12-22T01:39:31;93966.19;;;0.46;100.00
70559;BME280;58108;48.094;11.838;2023-12-22T01:41:56;93960.44;;;0.55;100.00
70559;BME280;58108;48.094;11.838;2023-12-22T01:44:22;93955.00;;;0.32;100.00
70559;BME280;58108;48.094;11.838;2023-12-22T01:46:49;93963.06;;;0.40;100.00
70559;BME280;58108;48.094;11.838;2023-12-22T01:49:15;93962.75;;;0.45;100.00
70559;BME280;58108;48.094;11.838;2023-12-22T01:51:41;93967.38;;;0.40;100.00
70559;BME280;58108;48.094;11.838;2023-12-22T01:54:07;93958.28;;;0.34;100.00
70559;BME280;58108;48.094;11.838;2023-12-22T01:56:33;93966.75;;;0.36;100.00
70559;BME280;58108;48.094;11.838;2023-12-22T01:59:00;93956.31;;;0.25;100.00
70559;BME280;58108;48.094;11.838;2023-12-22T02:01:31;93960.47;;;0.13;100.00
70559;BME280;58108;48.094;11.838;2023-12-22T02:03:58;93937.72;;;-0.08;100.00
70559;BME280;58108;48.094;11.838;2023-12-22T02:06:24;93948.63;;;0.10;100.00
70559;BME280;58108;48.094;11.838;2023-12-22T02:08:50;93949.19;;;0.01;100.00
70559;BME280;58108;48.094;11.838;2023-12-22T02:11:16;93938.66;;;-0.09;100.00
70559;BME280;58108;48.094;11.838;2023-12-22T02:13:45;93956.44;;;-0.06;100.00
70559;BME280;58108;48.094;11.838;2023-12-22T02:16:28;93965.19;;;-0.08;100.00
70559;BME280;58108;48.094;11.838;2023-12-22T02:18:57;93970.72;;;0.00;100.00
70559;BME280;58108;48.094;11.838;2023-12-22T02:21:24;93985.69;;;-0.21;100.00
70559;BME280;58108;48.094;11.838;2023-12-22T02:23:50;93988.63;;;-0.13;100.00
70559;BME280;58108;48.094;11.838;2023-12-22T02:26:28;93983.03;;;-0.05;100.00
70559;BME280;58108;48.094;11.838;2023-12-22T02:28:59;93996.44;;;-0.15;100.00
70559;BME280;58108;48.094;11.838;2023-12-22T02:31:42;93984.22;;;-0.11;100.00
70559;BME280;58108;48.094;11.838;2023-12-22T02:34:15;93976.88;;;-0.03;100.00
70559;BME280;58108;48.094;11.838;2023-12-22T02:36:44;93974.38;;;-0.04;100.00
70559;BME280;58108;48.094;11.838;2023-12-22T02:39:11;93958.84;;;-0.03;100.00
70559;BME280;58108;48.094;11.838;2023-12-22T02:41:37;93950.72;;;0.04;100.00
70559;BME280;58108;48.094;11.838;2023-12-22T02:44:03;93948.91;;;0.06;100.00
70559;BME280;58108;48.094;11.838;2023-12-22T02:46:28;93950.94;;;0.01;100.00
70559;BME280;58108;48.094;11.838;2023-12-22T02:48:54;93961.00;;;0.18;100.00
70559;BME280;58108;48.094;11.838;2023-12-22T02:51:19;93970.41;;;0.05;100.00
70559;BME280;58108;48.094;11.838;2023-12-22T02:53:45;93967.59;;;-0.05;100.00
70559;BME280;58108;48.094;11.838;2023-12-22T02:56:10;93947.06;;;0.08;100.00
70559;BME280;58108;48.094;11.838;2023-12-22T02:58:36;93942.63;;;0.10;100.00
70559;BME280;58108;48.094;11.838;2023-12-22T03:01:02;93942.25;;;0.16;100.00
70559;BME280;58108;48.094;11.838;2023-12-22T03:03:27;93946.59;;;0.16;100.00
70559;BME280;58108;48.094;11.838;2023-12-22T03:05:53;93947.94;;;0.21;100.00
70559;BME280;58108;48.094;11.838;2023-12-22T03:08:18;93950.28;;;0.39;100.00
70559;BME280;58108;48.094;11.838;2023-12-22T03:10:44;93928.56;;;0.16;100.00
70559;BME280;58108;48.094;11.838;2023-12-22T03:13:09;93912.53;;;0.25;100.00
70559;BME280;58108;48.094;11.838;2023-12-22T03:15:35;93913.91;;;0.31;100.00
70559;BME280;58108;48.094;11.838;2023-12-22T03:18:01;93908.13;;;0.27;100.00
70559;BME280;58108;48.094;11.838;2023-12-22T03:20:26;93908.13;;;0.27;100.00
70559;BME280;58108;48.094;11.838;2023-12-22T03:22:52;93901.38;;;0.11;100.00
70559;BME280;58108;48.094;11.838;2023-12-22T03:25:17;93905.25;;;0.32;100.00
70559;BME280;58108;48.094;11.838;2023-12-22T03:27:43;93906.72;;;0.08;100.00
70559;BME280;58108;48.094;11.838;2023-12-22T03:30:09;93916.72;;;0.13;100.00
70559;BME280;58108;48.094;11.838;2023-12-22T03:32:35;93904.31;;;0.05;100.00
70559;BME280;58108;48.094;11.838;2023-12-22T03:35:00;93902.38;;;0.09;100.00
70559;BME280;58108;48.094;11.838;2023-12-22T03:37:26;93909.00;;;0.13;100.00
70559;BME280;58108;48.094;11.838;2023-12-22T03:39:51;93906.56;;;0.24;100.00
70559;BME280;58108;48.094;11.838;2023-12-22T03:42:17;93899.84;;;0.22;100.00
70559;BME280;58108;48.094;11.838;2023-12-22T03:44:42;93911.81;;;0.23;100.00
70559;BME280;58108;48.094;11.838;2023-12-22T03:47:08;93893.84;;;0.36;100.00
70559;BME280;58108;48.094;11.838;2023-12-22T03:49:33;93889.50;;;0.09;100.00
70559;BME280;58108;48.094;11.838;2023-12-22T03:51:59;93909.34;;;0.21;100.00
70559;BME280;58108;48.094;11.838;2023-12-22T03:54:24;93901.03;;;0.31;100.00
70559;BME280;58108;48.094;11.838;2023-12-22T03:56:50;93899.03;;;0.21;100.00
70559;BME280;58108;48.094;11.838;2023-12-22T03:59:15;93907.94;;;0.30;100.00
70559;BME280;58108;48.094;11.838;2023-12-22T04:01:44;93910.22;;;0.35;100.00
70559;BME280;58108;48.094;11.838;2023-12-22T04:04:09;93897.81;;;0.27;100.00
70559;BME280;58108;48.094;11.838;2023-12-22T04:06:38;93899.09;;;0.34;100.00
70559;BME280;58108;48.094;11.838;2023-12-22T04:09:04;93893.31;;;0.31;100.00
70559;BME280;58108;48.094;11.838;2023-12-22T04:11:29;93882.28;;;0.29;100.00
70559;BME280;58108;48.094;11.838;2023-12-22T04:13:55;93885.16;;;0.24;100.00
70559;BME280;58108;48.094;11.838;2023-12-22T04:16:20;93885.44;;;0.47;100.00
70559;BME280;58108;48.094;11.838;2023-12-22T04:18:46;93881.97;;;0.33;100.00
70559;BME280;58108;48.094;11.838;2023-12-22T04:21:12;93891.00;;;0.53;100.00
70559;BME280;58108;48.094;11.838;2023-12-22T04:23:37;93902.88;;;0.69;100.00
70559;BME280;58108;48.094;11.838;2023-12-22T04:26:03;93895.28;;;0.93;100.00
70559;BME280;58108;48.094;11.838;2023-12-22T04:28:28;93892.41;;;1.24;100.00
70559;BME280;58108;48.094;11.838;2023-12-22T04:30:54;93904.44;;;1.49;100.00
70559;BME280;58108;48.094;11.838;2023-12-22T04:33:19;93886.56;;;1.72;100.00
70559;BME280;58108;48.094;11.838;2023-12-22T04:35:45;93906.25;;;1.86;100.00
70559;BME280;58108;48.094;11.838;2023-12-22T04:38:10;93891.66;;;1.98;100.00
70559;BME280;58108;48.094;11.838;2023-12-22T04:40:36;93885.50;;;2.12;100.00
70559;BME280;58108;48.094;11.838;2023-12-22T04:43:01;93876.19;;;2.23;100.00
70559;BME280;58108;48.094;11.838;2023-12-22T04:45:27;93872.97;;;2.43;100.00
70559;BME280;58108;48.094;11.838;2023-12-22T04:47:52;93869.66;;;2.41;100.00
70559;BME280;58108;48.094;11.838;2023-12-22T04:50:18;93875.88;;;2.39;100.00
70559;BME280;58108;48.094;11.838;2023-12-22T04:52:43;93877.53;;;2.40;100.00
70559;BME280;58108;48.094;11.838;2023-12-22T04:55:09;93875.69;;;2.53;100.00
70559;BME280;58108;48.094;11.838;2023-12-22T04:57:35;93889.59;;;2.64;100.00
70559;BME280;58108;48.094;11.838;2023-12-22T05:00:00;93879.47;;;2.60;100.00
70559;BME280;58108;48.094;11.838;2023-12-22T05:02:26;93894.28;;;2.58;100.00
70559;BME280;58108;48.094;11.838;2023-12-22T05:04:51;93884.38;;;2.52;100.00
70559;BME280;58108;48.094;11.838;2023-12-22T05:07:17;93868.19;;;2.62;100.00
70559;BME280;58108;48.094;11.838;2023-12-22T05:09:42;93876.03;;;2.49;100.00
70559;BME280;58108;48.094;11.838;2023-12-22T05:12:08;93869.16;;;2.60;100.00
70559;BME280;58108;48.094;11.838;2023-12-22T05:14:33;93865.16;;;2.56;100.00
70559;BME280;58108;48.094;11.838;2023-12-22T05:16:59;93867.06;;;2.66;100.00
70559;BME280;58108;48.094;11.838;2023-12-22T05:19:25;93858.53;;;2.88;100.00
70559;BME280;58108;48.094;11.838;2023-12-22T05:21:50;93870.00;;;2.72;100.00
70559;BME280;58108;48.094;11.838;2023-12-22T05:24:18;93868.66;;;2.91;100.00
70559;BME280;58108;48.094;11.838;2023-12-22T05:26:43;93881.56;;;2.91;100.00
70559;BME280;58108;48.094;11.838;2023-12-22T05:29:09;93889.69;;;2.98;100.00
70559;BME280;58108;48.094;11.838;2023-12-22T05:31:35;93904.28;;;3.10;100.00
70559;BME280;58108;48.094;11.838;2023-12-22T05:34:00;93904.53;;;3.19;100.00
70559;BME280;58108;48.094;11.838;2023-12-22T05:36:25;93891.38;;;3.22;100.00
70559;BME280;58108;48.094;11.838;2023-12-22T05:38:51;93907.25;;;3.17;100.00
70559;BME280;58108;48.094;11.838;2023-12-22T05:41:17;93919.97;;;3.20;100.00
70559;BME280;58108;48.094;11.838;2023-12-22T05:43:42;93905.03;;;3.24;100.00
70559;BME280;58108;48.094;11.838;2023-12-22T05:46:08;93908.06;;;3.29;100.00
70559;BME280;58108;48.094;11.838;2023-12-22T05:48:35;93905.84;;;3.24;100.00
70559;BME280;58108;48.094;11.838;2023-12-22T05:51:00;93906.91;;;3.33;100.00
70559;BME280;58108;48.094;11.838;2023-12-22T05:53:28;93917.16;;;3.35;100.00
70559;BME280;58108;48.094;11.838;2023-12-22T05:55:54;93912.44;;;3.28;100.00
70559;BME280;58108;48.094;11.838;2023-12-22T05:58:19;93926.06;;;3.31;100.00
70559;BME280;58108;48.094;11.838;2023-12-22T06:00:45;93939.34;;;3.26;100.00
70559;BME280;58108;48.094;11.838;2023-12-22T06:03:10;93955.47;;;3.18;100.00
70559;BME280;58108;48.094;11.838;2023-12-22T06:05:36;93970.69;;;3.10;100.00
70559;BME280;58108;48.094;11.838;2023-12-22T06:08:02;93958.44;;;3.00;100.00
70559;BME280;58108;48.094;11.838;2023-12-22T06:10:27;94004.63;;;2.94;100.00
70559;BME280;58108;48.094;11.838;2023-12-22T06:12:53;94002.81;;;2.83;100.00
70559;BME280;58108;48.094;11.838;2023-12-22T06:15:18;93979.38;;;2.73;100.00
70559;BME280;58108;48.094;11.838;2023-12-22T06:17:43;93974.63;;;2.42;100.00
70559;BME280;58108;48.094;11.838;2023-12-22T06:20:10;94000.84;;;2.25;100.00
70559;BME280;58108;48.094;11.838;2023-12-22T06:22:35;94005.13;;;2.00;100.00
70559;BME280;58108;48.094;11.838;2023-12-22T06:25:01;94001.06;;;2.09;100.00
70559;BME280;58108;48.094;11.838;2023-12-22T06:27:33;94008.81;;;2.09;100.00
70559;BME280;58108;48.094;11.838;2023-12-22T06:29:59;94011.31;;;2.10;100.00
70559;BME280;58108;48.094;11.838;2023-12-22T06:32:24;94009.72;;;2.21;100.00
70559;BME280;58108;48.094;11.838;2023-12-22T06:34:50;94026.47;;;2.15;100.00
70559;BME280;58108;48.094;11.838;2023-12-22T06:37:15;94033.81;;;2.08;100.00
70559;BME280;58108;48.094;11.838;2023-12-22T06:39:42;93998.91;;;2.15;100.00
70559;BME280;58108;48.094;11.838;2023-12-22T06:42:07;93991.25;;;2.14;100.00
70559;BME280;58108;48.094;11.838;2023-12-22T06:44:41;94002.44;;;2.14;100.00
70559;BME280;58108;48.094;11.838;2023-12-22T06:47:07;94000.75;;;2.13;100.00
70559;BME280;58108;48.094;11.838;2023-12-22T06:49:33;93999.53;;;2.19;100.00
70559;BME280;58108;48.094;11.838;2023-12-22T06:51:58;93999.19;;;2.24;100.00
70559;BME280;58108;48.094;11.838;2023-12-22T06:54:24;94010.56;;;2.21;100.00
70559;BME280;58108;48.094;11.838;2023-12-22T06:56:49;94015.06;;;2.30;100.00
70559;BME280;58108;48.094;11.838;2023-12-22T06:59:15;94015.69;;;2.34;100.00
70559;BME280;58108;48.094;11.838;2023-12-22T07:01:40;94013.63;;;2.39;100.00
70559;BME280;58108;48.094;11.838;2023-12-22T07:04:06;94012.91;;;2.37;100.00
70559;BME280;58108;48.094;11.838;2023-12-22T07:06:33;94016.72;;;2.44;100.00
70559;BME280;58108;48.094;11.838;2023-12-22T07:11:38;94010.78;;;2.55;100.00
70559;BME280;58108;48.094;11.838;2023-12-22T07:14:04;94015.94;;;2.80;100.00
70559;BME280;58108;48.094;11.838;2023-12-22T07:16:29;93989.91;;;2.94;100.00
70559;BME280;58108;48.094;11.838;2023-12-22T07:18:55;94030.56;;;3.17;100.00
70559;BME280;58108;48.094;11.838;2023-12-22T07:21:21;94009.78;;;3.18;100.00
70559;BME280;58108;48.094;11.838;2023-12-22T07:23:47;94027.91;;;3.30;100.00
70559;BME280;58108;48.094;11.838;2023-12-22T07:26:12;94002.75;;;3.32;100.00
70559;BME280;58108;48.094;11.838;2023-12-22T07:28:38;94116.97;;;3.14;100.00
70559;BME280;58108;48.094;11.838;2023-12-22T07:31:04;94025.38;;;2.81;100.00
70559;BME280;58108;48.094;11.838;2023-12-22T07:33:31;94033.84;;;2.45;100.00
70559;BME280;58108;48.094;11.838;2023-12-22T07:35:56;94041.09;;;2.40;100.00
70559;BME280;58108;48.094;11.838;2023-12-22T07:38:22;94062.44;;;2.18;100.00
70559;BME280;58108;48.094;11.838;2023-12-22T07:40:47;94070.19;;;2.18;100.00
70559;BME280;58108;48.094;11.838;2023-12-22T07:43:13;94082.34;;;2.16;100.00
70559;BME280;58108;48.094;11.838;2023-12-22T07:45:39;94094.84;;;2.09;100.00
70559;BME280;58108;48.094;11.838;2023-12-22T07:48:05;94094.66;;;1.99;100.00
70559;BME280;58108;48.094;11.838;2023-12-22T07:50:30;94093.09;;;1.71;100.00
70559;BME280;58108;48.094;11.838;2023-12-22T07:52:56;94090.06;;;1.51;100.00
70559;BME280;58108;48.094;11.838;2023-12-22T07:55:21;94092.41;;;1.41;100.00
70559;BME280;58108;48.094;11.838;2023-12-22T07:57:47;94055.78;;;1.36;100.00
70559;BME280;58108;48.094;11.838;2023-12-22T08:00:13;94058.06;;;1.28;100.00
70559;BME280;58108;48.094;11.838;2023-12-22T08:02:38;94053.41;;;1.46;100.00
70559;BME280;58108;48.094;11.838;2023-12-22T08:05:04;94067.16;;;1.59;100.00
70559;BME280;58108;48.094;11.838;2023-12-22T08:07:30;94120.53;;;1.59;100.00
70559;BME280;58108;48.094;11.838;2023-12-22T08:09:56;94138.59;;;1.59;100.00
70559;BME280;58108;48.094;11.838;2023-12-22T08:12:22;94159.97;;;1.33;100.00
70559;BME280;58108;48.094;11.838;2023-12-22T08:14:48;94125.31;;;0.82;100.00
70559;BME280;58108;48.094;11.838;2023-12-22T08:17:13;94166.63;;;0.66;100.00
70559;BME280;58108;48.094;11.838;2023-12-22T08:19:39;94172.06;;;0.62;100.00
70559;BME280;58108;48.094;11.838;2023-12-22T08:22:11;94190.56;;;0.68;100.00
70559;BME280;58108;48.094;11.838;2023-12-22T08:24:38;94187.81;;;0.72;100.00
70559;BME280;58108;48.094;11.838;2023-12-22T08:27:05;94199.69;;;0.74;100.00
70559;BME280;58108;48.094;11.838;2023-12-22T08:29:32;94190.94;;;0.77;100.00
70559;BME280;58108;48.094;11.838;2023-12-22T08:31:58;94170.03;;;0.81;100.00
70559;BME280;58108;48.094;11.838;2023-12-22T08:34:23;94193.13;;;0.98;100.00
70559;BME280;58108;48.094;11.838;2023-12-22T08:36:49;94192.34;;;1.10;100.00
70559;BME280;58108;48.094;11.838;2023-12-22T08:39:15;94197.38;;;1.26;100.00
70559;BME280;58108;48.094;11.838;2023-12-22T08:41:41;94171.88;;;1.49;100.00
70559;BME280;58108;48.094;11.838;2023-12-22T08:44:07;94177.63;;;1.67;100.00
70559;BME280;58108;48.094;11.838;2023-12-22T08:46:33;94179.19;;;1.83;100.00
70559;BME280;58108;48.094;11.838;2023-12-22T08:48:58;94182.00;;;1.93;100.00
70559;BME280;58108;48.094;11.838;2023-12-22T08:51:28;94162.84;;;2.10;100.00
70559;BME280;58108;48.094;11.838;2023-12-22T08:53:54;94172.53;;;2.32;100.00
70559;BME280;58108;48.094;11.838;2023-12-22T08:56:23;94165.81;;;2.42;100.00
70559;BME280;58108;48.094;11.838;2023-12-22T08:58:51;94174.38;;;2.56;100.00
70559;BME280;58108;48.094;11.838;2023-12-22T09:01:18;94185.25;;;2.61;100.00
70559;BME280;58108;48.094;11.838;2023-12-22T09:03:43;94188.31;;;2.79;100.00
70559;BME280;58108;48.094;11.838;2023-12-22T09:06:15;94187.44;;;3.05;100.00
70559;BME280;58108;48.094;11.838;2023-12-22T09:08:44;94183.00;;;3.07;100.00
70559;BME280;58108;48.094;11.838;2023-12-22T09:11:16;94164.47;;;3.13;100.00
70559;BME280;58108;48.094;11.838;2023-12-22T09:13:42;94161.53;;;3.18;100.00
70559;BME280;58108;48.094;11.838;2023-12-22T09:16:08;94165.34;;;3.25;100.00
70559;BME280;58108;48.094;11.838;2023-12-22T09:18:35;94152.94;;;3.30;100.00
70559;BME280;58108;48.094;11.838;2023-12-22T09:21:01;94182.00;;;3.34;100.00
70559;BME280;58108;48.094;11.838;2023-12-22T09:23:27;94169.75;;;3.36;100.00
70559;BME280;58108;48.094;11.838;2023-12-22T09:25:52;94187.63;;;3.52;100.00
70559;BME280;58108;48.094;11.838;2023-12-22T09:28:18;94142.53;;;3.54;100.00
70559;BME280;58108;48.094;11.838;2023-12-22T09:30:44;94167.56;;;3.67;100.00
70559;BME280;58108;48.094;11.838;2023-12-22T09:33:10;94157.09;;;3.68;100.00
70559;BME280;58108;48.094;11.838;2023-12-22T09:35:36;94177.19;;;3.65;100.00
70559;BME280;58108;48.094;11.838;2023-12-22T09:38:03;94156.34;;;3.66;100.00
70559;BME280;58108;48.094;11.838;2023-12-22T09:40:29;94168.84;;;3.73;100.00
70559;BME280;58108;48.094;11.838;2023-12-22T09:42:57;94165.94;;;3.77;100.00
70559;BME280;58108;48.094;11.838;2023-12-22T09:45:23;94142.41;;;3.80;100.00
70559;BME280;58108;48.094;11.838;2023-12-22T09:47:50;94158.75;;;3.81;100.00
70559;BME280;58108;48.094;11.838;2023-12-22T09:50:17;94166.44;;;3.82;100.00
70559;BME280;58108;48.094;11.838;2023-12-22T09:52:43;94163.13;;;3.80;100.00
70559;BME280;58108;48.094;11.838;2023-12-22T09:55:13;94177.19;;;3.89;100.00
70559;BME280;58108;48.094;11.838;2023-12-22T09:57:39;94185.88;;;3.88;100.00
70559;BME280;58108;48.094;11.838;2023-12-22T10:00:09;94170.38;;;4.00;100.00
70559;BME280;58108;48.094;11.838;2023-12-22T10:02:36;94172.38;;;3.96;100.00
70559;BME280;58108;48.094;11.838;2023-12-22T10:05:03;94186.25;;;3.95;100.00
70559;BME280;58108;48.094;11.838;2023-12-22T10:07:30;94165.88;;;3.90;100.00
70559;BME280;58108;48.094;11.838;2023-12-22T10:09:56;94167.28;;;3.83;100.00
70559;BME280;58108;48.094;11.838;2023-12-22T10:12:24;94158.91;;;3.79;100.00
70559;BME280;58108;48.094;11.838;2023-12-22T10:14:51;94178.16;;;3.75;100.00
70559;BME280;58108;48.094;11.838;2023-12-22T10:17:17;94166.25;;;3.61;100.00
70559;BME280;58108;48.094;11.838;2023-12-22T10:19:43;94147.25;;;3.49;100.00
70559;BME280;58108;48.094;11.838;2023-12-22T10:22:08;94176.06;;;3.45;100.00
70559;BME280;58108;48.094;11.838;2023-12-22T10:24:38;94172.69;;;3.31;100.00
70559;BME280;58108;48.094;11.838;2023-12-22T10:27:05;94159.66;;;3.20;100.00
70559;BME280;58108;48.094;11.838;2023-12-22T10:29:31;94159.94;;;3.04;100.00
70559;BME280;58108;48.094;11.838;2023-12-22T10:32:00;94159.75;;;2.94;100.00
70559;BME280;58108;48.094;11.838;2023-12-22T10:34:26;94172.16;;;2.89;100.00
70559;BME280;58108;48.094;11.838;2023-12-22T10:36:52;94176.22;;;2.80;100.00
70559;BME280;58108;48.094;11.838;2023-12-22T10:39:17;94156.28;;;2.69;100.00
70559;BME280;58108;48.094;11.838;2023-12-22T10:41:43;94150.63;;;2.64;100.00
70559;BME280;58108;48.094;11.838;2023-12-22T10:44:09;94155.16;;;2.60;100.00
70559;BME280;58108;48.094;11.838;2023-12-22T10:46:35;94149.38;;;2.56;100.00
70559;BME280;58108;48.094;11.838;2023-12-22T10:49:02;94148.03;;;2.51;100.00
70559;BME280;58108;48.094;11.838;2023-12-22T10:51:29;94147.44;;;2.47;100.00
70559;BME280;58108;48.094;11.838;2023-12-22T10:53:58;94141.22;;;2.50;100.00
70559;BME280;58108;48.094;11.838;2023-12-22T10:56:28;94123.03;;;2.51;100.00
70559;BME280;58108;48.094;11.838;2023-12-22T10:58:54;94124.91;;;2.49;100.00
70559;BME280;58108;48.094;11.838;2023-12-22T11:01:21;94104.41;;;2.46;100.00
70559;BME280;58108;48.094;11.838;2023-12-22T11:03:50;94108.22;;;2.53;100.00
70559;BME280;58108;48.094;11.838;2023-12-22T11:06:16;94122.94;;;2.53;100.00
70559;BME280;58108;48.094;11.838;2023-12-22T11:08:43;94113.53;;;2.52;100.00
70559;BME280;58108;48.094;11.838;2023-12-22T11:11:16;94126.31;;;2.53;100.00
70559;BME280;58108;48.094;11.838;2023-12-22T11:13:46;94134.19;;;2.52;100.00
70559;BME280;58108;48.094;11.838;2023-12-22T11:16:14;94125.38;;;2.67;100.00
70559;BME280;58108;48.094;11.838;2023-12-22T11:18:40;94128.44;;;2.72;100.00
70559;BME280;58108;48.094;11.838;2023-12-22T11:21:08;94128.84;;;2.92;100.00
70559;BME280;58108;48.094;11.838;2023-12-22T11:23:35;94122.97;;;3.14;100.00
70559;BME280;58108;48.094;11.838;2023-12-22T11:26:03;94134.50;;;3.22;100.00
70559;BME280;58108;48.094;11.838;2023-12-22T11:28:31;94123.63;;;3.30;100.00
70559;BME280;58108;48.094;11.838;2023-12-22T11:30:58;94123.09;;;3.37;100.00
70559;BME280;58108;48.094;11.838;2023-12-22T11:33:25;94122.31;;;3.48;100.00
70559;BME280;58108;48.094;11.838;2023-12-22T11:35:55;94114.22;;;3.53;100.00
70559;BME280;58108;48.094;11.838;2023-12-22T11:38:21;94110.44;;;3.57;100.00
70559;BME280;58108;48.094;11.838;2023-12-22T11:40:49;94105.88;;;3.61;100.00
70559;BME280;58108;48.094;11.838;2023-12-22T11:43:18;94092.81;;;3.62;100.00
70559;BME280;58108;48.094;11.838;2023-12-22T11:45:44;94084.00;;;3.65;100.00
70559;BME280;58108;48.094;11.838;2023-12-22T11:48:10;94100.84;;;3.71;100.00
70559;BME280;58108;48.094;11.838;2023-12-22T11:50:36;94094.03;;;3.69;100.00
70559;BME280;58108;48.094;11.838;2023-12-22T11:53:22;94099.09;;;3.71;100.00
70559;BME280;58108;48.094;11.838;2023-12-22T11:58:44;94090.25;;;3.74;100.00
70559;BME280;58108;48.094;11.838;2023-12-22T12:01:19;94098.00;;;3.62;100.00
70559;BME280;58108;48.094;11.838;2023-12-22T12:03:53;94080.38;;;3.67;100.00
70559;BME280;58108;48.094;11.838;2023-12-22T12:08:51;94104.31;;;3.58;100.00
70559;BME280;58108;48.094;11.838;2023-12-22T12:11:17;94093.03;;;3.59;100.00
70559;BME280;58108;48.094;11.838;2023-12-22T12:13:44;94112.00;;;3.60;100.00
70559;BME280;58108;48.094;11.838;2023-12-22T12:16:12;94105.97;;;3.59;100.00
70559;BME280;58108;48.094;11.838;2023-12-22T12:18:38;94089.53;;;3.60;100.00
70559;BME280;58108;48.094;11.838;2023-12-22T12:21:06;94071.19;;;3.63;100.00
70559;BME280;58108;48.094;11.838;2023-12-22T12:23:32;94089.28;;;3.63;100.00
70559;BME280;58108;48.094;11.838;2023-12-22T12:25:58;94098.69;;;3.64;100.00
70559;BME280;58108;48.094;11.838;2023-12-22T12:28:31;94091.31;;;3.71;100.00
70559;BME280;58108;48.094;11.838;2023-12-22T12:30:59;94084.38;;;3.72;100.00
70559;BME280;58108;48.094;11.838;2023-12-22T12:33:26;94055.34;;;3.79;100.00
70559;BME280;58108;48.094;11.838;2023-12-22T12:35:57;94057.09;;;3.79;100.00
70559;BME280;58108;48.094;11.838;2023-12-22T12:41:16;94061.31;;;3.80;100.00
70559;BME280;58108;48.094;11.838;2023-12-22T12:43:42;94056.03;;;3.81;100.00
70559;BME280;58108;48.094;11.838;2023-12-22T12:46:09;94026.25;;;3.76;100.00
70559;BME280;58108;48.094;11.838;2023-12-22T12:48:35;94033.88;;;3.77;100.00
70559;BME280;58108;48.094;11.838;2023-12-22T12:51:02;94049.09;;;3.82;100.00
70559;BME280;58108;48.094;11.838;2023-12-22T12:53:30;94039.06;;;3.77;100.00
70559;BME280;58108;48.094;11.838;2023-12-22T12:55:56;94024.25;;;3.79;100.00
70559;BME280;58108;48.094;11.838;2023-12-22T12:58:27;94040.75;;;3.78;100.00